Wetterdaten: aktuell Freitag, 14.06.2024 05:25
Datum Zeit Temp. A. Feuchte A. Luftdruck Regen Wind Richtung Richtung Sonnenschein Solar Taupunkt Windchill Windben
14.06.2024 05:25 11,1 C 85 % 1014,4 hPa 0,0 l/m 8,0 km/h S-SO 157 0 min 9 W/m 8,7 C 10,0 C 14,5 km/h
14.06.2024 05:20 11,2 C 84 % 1014,3 hPa 0,0 l/m 6,4 km/h S-SO 157 0 min 7 W/m 8,6 C 11,2 C 12,9 km/h
14.06.2024 05:15 11,3 C 84 % 1014,3 hPa 0,0 l/m 8,0 km/h S-SO 157 0 min 5 W/m 8,7 C 10,2 C 16,1 km/h
14.06.2024 05:10 11,3 C 84 % 1014,3 hPa 0,0 l/m 6,4 km/h S-SO 157 0 min 0 W/m 8,7 C 11,3 C 16,1 km/h
14.06.2024 05:05 11,4 C 84 % 1014,3 hPa 0,0 l/m 6,4 km/h SO 135 0 min 0 W/m 8,8 C 11,4 C 16,1 km/h
14.06.2024 05:00 11,4 C 84 % 1014,2 hPa 0,0 l/m 8,0 km/h SO 135 0 min 0 W/m 8,8 C 10,3 C 17,7 km/h
14.06.2024 04:55 11,4 C 84 % 1014,1 hPa 0,0 l/m 6,4 km/h O-SO 112 0 min 0 W/m 8,8 C 11,4 C 14,5 km/h
14.06.2024 04:50 11,5 C 84 % 1014,1 hPa 0,0 l/m 6,4 km/h SO 135 0 min 0 W/m 8,9 C 11,5 C 14,5 km/h
14.06.2024 04:45 11,5 C 84 % 1014,2 hPa 0,0 l/m 6,4 km/h SO 135 0 min 0 W/m 8,9 C 11,5 C 16,1 km/h
14.06.2024 04:40 11,5 C 84 % 1014,1 hPa 0,0 l/m 8,0 km/h SO 135 0 min 0 W/m 8,9 C 10,4 C 16,1 km/h
14.06.2024 04:35 11,4 C 84 % 1014,2 hPa 0,0 l/m 8,0 km/h SO 135 0 min 0 W/m 8,8 C 10,3 C 14,5 km/h
14.06.2024 04:30 11,5 C 84 % 1014,2 hPa 0,0 l/m 8,0 km/h SO 135 0 min 0 W/m 8,9 C 10,4 C 14,5 km/h
14.06.2024 04:25 11,4 C 84 % 1014,1 hPa 0,0 l/m 6,4 km/h SO 135 0 min 0 W/m 8,8 C 11,4 C 14,5 km/h
14.06.2024 04:20 11,4 C 85 % 1014,1 hPa 0,0 l/m 4,8 km/h SO 135 0 min 0 W/m 9,0 C 11,4 C 14,5 km/h
14.06.2024 04:15 11,4 C 85 % 1014,3 hPa 0,0 l/m 6,4 km/h O-SO 112 0 min 0 W/m 9,0 C 11,4 C 14,5 km/h
14.06.2024 04:10 11,4 C 85 % 1014,4 hPa 0,0 l/m 8,0 km/h O-SO 112 0 min 0 W/m 9,0 C 10,3 C 16,1 km/h
14.06.2024 04:05 11,4 C 85 % 1014,4 hPa 0,0 l/m 6,4 km/h SO 135 0 min 0 W/m 9,0 C 11,4 C 16,1 km/h
14.06.2024 04:00 11,4 C 85 % 1014,3 hPa 0,0 l/m 6,4 km/h O-SO 112 0 min 0 W/m 9,0 C 11,4 C 14,5 km/h
14.06.2024 03:55 11,4 C 85 % 1014,4 hPa 0,0 l/m 8,0 km/h O-SO 112 0 min 0 W/m 9,0 C 10,3 C 16,1 km/h
14.06.2024 03:50 11,4 C 85 % 1014,5 hPa 0,0 l/m 6,4 km/h SO 135 0 min 0 W/m 9,0 C 11,4 C 14,5 km/h
14.06.2024 03:45 11,3 C 85 % 1014,6 hPa 0,0 l/m 4,8 km/h O-SO 112 0 min 0 W/m 8,9 C 11,3 C 12,9 km/h
14.06.2024 03:40 11,3 C 86 % 1014,6 hPa 0,0 l/m 8,0 km/h O-SO 112 0 min 0 W/m 9,0 C 10,2 C 16,1 km/h
14.06.2024 03:35 11,3 C 86 % 1014,7 hPa 0,0 l/m 6,4 km/h O-SO 112 0 min 0 W/m 9,0 C 11,3 C 12,9 km/h
14.06.2024 03:30 11,2 C 86 % 1014,7 hPa 0,0 l/m 6,4 km/h O-SO 112 0 min 0 W/m 8,9 C 11,2 C 12,9 km/h
14.06.2024 03:25 11,1 C 86 % 1014,7 hPa 0,0 l/m 4,8 km/h O-SO 112 0 min 0 W/m 8,8 C 11,1 C 12,9 km/h
14.06.2024 03:20 11,1 C 86 % 1014,7 hPa 0,0 l/m 6,4 km/h O-SO 112 0 min 0 W/m 8,8 C 11,1 C 12,9 km/h
14.06.2024 03:15 11,0 C 86 % 1014,8 hPa 0,0 l/m 4,8 km/h SO 135 0 min 0 W/m 8,7 C 11,0 C 12,9 km/h
14.06.2024 03:10 10,9 C 86 % 1014,8 hPa 0,0 l/m 6,4 km/h O-SO 112 0 min 0 W/m 8,7 C 10,9 C 12,9 km/h
14.06.2024 03:05 10,8 C 86 % 1014,8 hPa 0,0 l/m 6,4 km/h O-SO 112 0 min 0 W/m 8,6 C 10,8 C 16,1 km/h
14.06.2024 03:00 10,8 C 86 % 1014,8 hPa 0,0 l/m 4,8 km/h O-SO 112 0 min 0 W/m 8,6 C 10,8 C 12,9 km/h
14.06.2024 02:55 10,7 C 86 % 1014,9 hPa 0,0 l/m 3,2 km/h O-SO 112 0 min 0 W/m 8,5 C 10,7 C 11,3 km/h
14.06.2024 02:50 10,6 C 86 % 1015,0 hPa 0,0 l/m 4,8 km/h O-SO 112 0 min 0 W/m 8,4 C 10,6 C 11,3 km/h
14.06.2024 02:45 10,5 C 86 % 1015,0 hPa 0,0 l/m 3,2 km/h O-SO 112 0 min 0 W/m 8,3 C 10,5 C 9,7 km/h
14.06.2024 02:40 10,5 C 86 % 1015,1 hPa 0,0 l/m 1,6 km/h O-NO 67 0 min 0 W/m 8,3 C 10,5 C 4,8 km/h
14.06.2024 02:35 10,4 C 86 % 1015,0 hPa 0,0 l/m 3,2 km/h SO 135 0 min 0 W/m 8,2 C 10,4 C 8,0 km/h
14.06.2024 02:30 10,4 C 86 % 1015,1 hPa 0,0 l/m 3,2 km/h SO 135 0 min 0 W/m 8,2 C 10,4 C 6,4 km/h
14.06.2024 02:25 10,4 C 86 % 1015,1 hPa 0,0 l/m 3,2 km/h SO 135 0 min 0 W/m 8,2 C 10,4 C 6,4 km/h
14.06.2024 02:20 10,3 C 86 % 1015,1 hPa 0,0 l/m 3,2 km/h SO 135 0 min 0 W/m 8,1 C 10,3 C 8,0 km/h
14.06.2024 02:15 10,3 C 87 % 1015,2 hPa 0,0 l/m 3,2 km/h SO 135 0 min 0 W/m 8,2 C 10,3 C 6,4 km/h
14.06.2024 02:10 10,3 C 87 % 1015,3 hPa 0,0 l/m 1,6 km/h SO 135 0 min 0 W/m 8,2 C 10,3 C 6,4 km/h
14.06.2024 02:05 10,3 C 87 % 1015,3 hPa 0,0 l/m 1,6 km/h SO 135 0 min 0 W/m 8,2 C 10,3 C 6,4 km/h
14.06.2024 02:00 10,2 C 87 % 1015,3 hPa 0,0 l/m 1,6 km/h SO 135 0 min 0 W/m 8,1 C 10,2 C 4,8 km/h
14.06.2024 01:55 10,2 C 87 % 1015,4 hPa 0,0 l/m 3,2 km/h SO 135 0 min 0 W/m 8,1 C 10,2 C 6,4 km/h
14.06.2024 01:50 10,1 C 87 % 1015,4 hPa 0,0 l/m 1,6 km/h SO 135 0 min 0 W/m 8,0 C 10,1 C 4,8 km/h
14.06.2024 01:45 10,1 C 87 % 1015,3 hPa 0,0 l/m 1,6 km/h SO 135 0 min 0 W/m 8,0 C 10,1 C 6,4 km/h
14.06.2024 01:40 10,1 C 86 % 1015,4 hPa 0,0 l/m 1,6 km/h SO 135 0 min 0 W/m 7,9 C 10,1 C 4,8 km/h
14.06.2024 01:35 10,1 C 86 % 1015,5 hPa 0,0 l/m 1,6 km/h SO 135 0 min 0 W/m 7,9 C 10,1 C 4,8 km/h
14.06.2024 01:30 10,1 C 85 % 1015,5 hPa 0,0 l/m 0,0 km/h SO 135 0 min 0 W/m 7,7 C 10,1 C 4,8 km/h
14.06.2024 01:25 10,2 C 85 % 1015,5 hPa 0,0 l/m 0,0 km/h SO 135 0 min 0 W/m 7,8 C 10,2 C 3,2 km/h
14.06.2024 01:20 10,3 C 85 % 1015,5 hPa 0,0 l/m 0,0 km/h SO 135 0 min 0 W/m 7,9 C 10,3 C 3,2 km/h
14.06.2024 01:15 10,3 C 86 % 1015,6 hPa 0,0 l/m 0,0 km/h SO 135 0 min 0 W/m 8,1 C 10,3 C 3,2 km/h
14.06.2024 01:10 10,3 C 86 % 1015,8 hPa 0,0 l/m 0,0 km/h SO 135 0 min 0 W/m 8,1 C 10,3 C 1,6 km/h
14.06.2024 01:05 10,3 C 86 % 1015,7 hPa 0,0 l/m 0,0 km/h N 0 0 min 0 W/m 8,1 C 10,3 C 0,0 km/h
14.06.2024 01:00 10,3 C 86 % 1015,6 hPa 0,0 l/m 0,0 km/h SO 135 0 min 0 W/m 8,1 C 10,3 C 4,8 km/h
14.06.2024 00:55 10,2 C 86 % 1015,5 hPa 0,0 l/m 0,0 km/h N 0 0 min 0 W/m 8,0 C 10,2 C 0,0 km/h
14.06.2024 00:50 10,1 C 86 % 1015,6 hPa 0,0 l/m 0,0 km/h N 0 0 min 0 W/m 7,9 C 10,1 C 0,0 km/h
14.06.2024 00:45 10,1 C 86 % 1015,6 hPa 0,0 l/m 0,0 km/h SO 135 0 min 0 W/m 7,9 C 10,1 C 1,6 km/h
14.06.2024 00:40 10,2 C 86 % 1015,6 hPa 0,0 l/m 0,0 km/h SO 135 0 min 0 W/m 8,0 C 10,2 C 1,6 km/h
14.06.2024 00:35 10,2 C 86 % 1015,6 hPa 0,0 l/m 1,6 km/h SO 135 0 min 0 W/m 8,0 C 10,2 C 4,8 km/h
14.06.2024 00:30 10,3 C 85 % 1015,7 hPa 0,0 l/m 0,0 km/h SO 135 0 min 0 W/m 7,9 C 10,3 C 1,6 km/h
14.06.2024 00:25 10,4 C 85 % 1015,6 hPa 0,0 l/m 1,6 km/h SO 135 0 min 0 W/m 8,0 C 10,4 C 9,7 km/h
14.06.2024 00:20 10,5 C 85 % 1015,7 hPa 0,0 l/m 0,0 km/h SO 135 0 min 0 W/m 8,1 C 10,5 C 4,8 km/h
14.06.2024 00:15 10,6 C 85 % 1015,6 hPa 0,0 l/m 0,0 km/h SO 135 0 min 0 W/m 8,2 C 10,6 C 3,2 km/h
14.06.2024 00:10 10,7 C 85 % 1015,6 hPa 0,0 l/m 0,0 km/h SO 135 0 min 0 W/m 8,3 C 10,7 C 1,6 km/h
14.06.2024 00:05 10,8 C 85 % 1015,6 hPa 0,0 l/m 1,6 km/h SO 135 0 min 0 W/m 8,4 C 10,8 C 3,2 km/h
14.06.2024 00:00 10,9 C 85 % 1015,6 hPa 0,0 l/m 1,6 km/h SO 135 0 min 0 W/m 8,5 C 10,9 C 4,8 km/h
13.06.2024 23:55 11,1 C 84 % 1015,6 hPa 0,0 l/m 1,6 km/h SO 135 0 min 0 W/m 8,5 C 11,1 C 3,2 km/h
13.06.2024 23:50 11,2 C 84 % 1015,7 hPa 0,0 l/m 0,0 km/h SO 135 0 min 0 W/m 8,6 C 11,2 C 1,6 km/h
13.06.2024 23:45 11,3 C 84 % 1015,8 hPa 0,0 l/m 1,6 km/h SO 135 0 min 0 W/m 8,7 C 11,3 C 3,2 km/h
13.06.2024 23:40 11,4 C 83 % 1015,7 hPa 0,0 l/m 1,6 km/h SO 135 0 min 0 W/m 8,6 C 11,4 C 3,2 km/h
13.06.2024 23:35 11,6 C 83 % 1015,8 hPa 0,0 l/m 1,6 km/h SO 135 0 min 0 W/m 8,8 C 11,6 C 3,2 km/h
13.06.2024 23:30 11,7 C 82 % 1015,8 hPa 0,0 l/m 1,6 km/h SO 135 0 min 0 W/m 8,7 C 11,7 C 4,8 km/h
13.06.2024 23:25 11,8 C 82 % 1015,8 hPa 0,0 l/m 0,0 km/h SO 135 0 min 0 W/m 8,8 C 11,8 C 1,6 km/h
13.06.2024 23:20 11,8 C 82 % 1015,8 hPa 0,0 l/m 0,0 km/h SO 135 0 min 0 W/m 8,8 C 11,8 C 1,6 km/h
13.06.2024 23:15 11,9 C 82 % 1015,8 hPa 0,0 l/m 0,0 km/h SO 135 0 min 0 W/m 8,9 C 11,9 C 1,6 km/h
13.06.2024 23:10 12,0 C 82 % 1015,9 hPa 0,0 l/m 0,0 km/h SO 135 0 min 0 W/m 9,0 C 12,0 C 1,6 km/h
13.06.2024 23:05 12,1 C 82 % 1015,9 hPa 0,0 l/m 1,6 km/h SO 135 0 min 0 W/m 9,1 C 12,1 C 3,2 km/h
13.06.2024 23:00 12,2 C 82 % 1015,9 hPa 0,0 l/m 1,6 km/h SO 135 0 min 0 W/m 9,2 C 12,2 C 3,2 km/h
13.06.2024 22:55 12,3 C 81 % 1015,9 hPa 0,0 l/m 0,0 km/h SO 135 0 min 0 W/m 9,1 C 12,3 C 1,6 km/h
13.06.2024 22:50 12,4 C 81 % 1016,0 hPa 0,0 l/m 0,0 km/h SO 135 0 min 0 W/m 9,2 C 12,4 C 1,6 km/h
13.06.2024 22:45 12,6 C 81 % 1016,0 hPa 0,0 l/m 0,0 km/h SO 135 0 min 0 W/m 9,4 C 12,6 C 3,2 km/h
13.06.2024 22:40 12,6 C 81 % 1016,1 hPa 0,0 l/m 0,0 km/h SO 135 0 min 0 W/m 9,4 C 12,6 C 1,6 km/h
13.06.2024 22:35 12,8 C 81 % 1016,1 hPa 0,0 l/m 1,6 km/h SO 135 0 min 0 W/m 9,6 C 12,8 C 3,2 km/h
13.06.2024 22:30 12,9 C 79 % 1016,1 hPa 0,0 l/m 0,0 km/h SO 135 0 min 0 W/m 9,3 C 12,9 C 1,6 km/h
13.06.2024 22:25 12,9 C 79 % 1016,1 hPa 0,0 l/m 0,0 km/h SO 135 0 min 0 W/m 9,3 C 12,9 C 3,2 km/h
13.06.2024 22:20 13,0 C 80 % 1016,2 hPa 0,0 l/m 0,0 km/h SO 135 0 min 0 W/m 9,6 C 13,0 C 1,6 km/h
13.06.2024 22:15 13,2 C 79 % 1016,2 hPa 0,0 l/m 0,0 km/h SO 135 0 min 0 W/m 9,6 C 13,2 C 1,6 km/h
13.06.2024 22:10 13,4 C 79 % 1016,2 hPa 0,0 l/m 0,0 km/h SO 135 0 min 0 W/m 9,8 C 13,4 C 1,6 km/h
13.06.2024 22:05 13,6 C 78 % 1016,2 hPa 0,0 l/m 1,6 km/h SO 135 0 min 0 W/m 9,8 C 13,6 C 4,8 km/h
13.06.2024 22:00 13,8 C 77 % 1016,3 hPa 0,0 l/m 1,6 km/h SO 135 0 min 0 W/m 9,8 C 13,8 C 3,2 km/h
13.06.2024 21:55 13,9 C 77 % 1016,3 hPa 0,0 l/m 1,6 km/h SO 135 0 min 0 W/m 9,9 C 13,9 C 4,8 km/h
13.06.2024 21:50 14,2 C 76 % 1016,3 hPa 0,0 l/m 1,6 km/h SO 135 0 min 0 W/m 10,0 C 14,2 C 4,8 km/h
13.06.2024 21:45 14,4 C 75 % 1016,3 hPa 0,0 l/m 1,6 km/h SO 135 0 min 0 W/m 10,0 C 14,4 C 4,8 km/h
13.06.2024 21:40 14,6 C 74 % 1016,1 hPa 0,0 l/m 1,6 km/h SO 135 0 min 0 W/m 10,0 C 14,6 C 4,8 km/h
13.06.2024 21:35 14,9 C 73 % 1016,2 hPa 0,0 l/m 1,6 km/h SO 135 0 min 0 W/m 10,1 C 14,9 C 4,8 km/h
13.06.2024 21:30 15,2 C 71 % 1016,2 hPa 0,0 l/m 1,6 km/h SO 135 0 min 0 W/m 10,0 C 15,2 C 4,8 km/h
13.06.2024 21:25 15,4 C 70 % 1016,1 hPa 0,0 l/m 0,0 km/h SO 135 0 min 0 W/m 10,0 C 15,4 C 3,2 km/h
13.06.2024 21:20 15,6 C 70 % 1016,1 hPa 0,0 l/m 1,6 km/h SO 135 0 min 0 W/m 10,1 C 15,6 C 3,2 km/h
13.06.2024 21:15 15,8 C 69 % 1016,1 hPa 0,0 l/m 1,6 km/h SO 135 0 min 0 W/m 10,1 C 15,8 C 3,2 km/h
13.06.2024 21:10 15,9 C 69 % 1016,2 hPa 0,0 l/m 1,6 km/h SO 135 0 min 0 W/m 10,2 C 15,9 C 3,2 km/h
13.06.2024 21:05 16,1 C 68 % 1016,0 hPa 0,0 l/m 0,0 km/h SO 135 0 min 5 W/m 10,2 C 16,1 C 1,6 km/h
13.06.2024 21:00 16,2 C 67 % 1016,2 hPa 0,0 l/m 0,0 km/h SO 135 0 min 7 W/m 10,1 C 16,2 C 1,6 km/h
13.06.2024 20:55 16,6 C 66 % 1016,2 hPa 0,0 l/m 1,6 km/h SO 135 0 min 11 W/m 10,2 C 16,6 C 1,6 km/h
13.06.2024 20:50 16,9 C 64 % 1016,0 hPa 0,0 l/m 1,6 km/h SO 135 0 min 12 W/m 10,0 C 16,9 C 3,2 km/h
13.06.2024 20:45 17,3 C 63 % 1016,0 hPa 0,0 l/m 1,6 km/h SO 135 0 min 16 W/m 10,2 C 17,3 C 6,4 km/h
13.06.2024 20:40 17,7 C 61 % 1016,0 hPa 0,0 l/m 3,2 km/h SO 135 0 min 19 W/m 10,1 C 17,7 C 6,4 km/h
13.06.2024 20:35 18,1 C 60 % 1016,0 hPa 0,0 l/m 1,6 km/h SO 135 0 min 23 W/m 10,2 C 18,1 C 4,8 km/h
13.06.2024 20:30 18,5 C 59 % 1015,9 hPa 0,0 l/m 3,2 km/h SO 135 0 min 25 W/m 10,3 C 18,5 C 4,8 km/h
13.06.2024 20:25 18,9 C 58 % 1015,9 hPa 0,0 l/m 3,2 km/h SO 135 0 min 28 W/m 10,5 C 18,9 C 6,4 km/h
13.06.2024 20:20 19,3 C 58 % 1015,9 hPa 0,0 l/m 3,2 km/h SO 135 0 min 47 W/m 10,8 C 19,3 C 6,4 km/h
13.06.2024 20:15 19,6 C 58 % 1015,9 hPa 0,0 l/m 3,2 km/h SO 135 0 min 79 W/m 11,1 C 19,6 C 6,4 km/h
13.06.2024 20:10 19,7 C 59 % 1015,9 hPa 0,0 l/m 3,2 km/h SO 135 5 min 97 W/m 11,5 C 19,7 C 6,4 km/h
13.06.2024 20:05 19,7 C 60 % 1015,9 hPa 0,0 l/m 1,6 km/h SO 135 5 min 130 W/m 11,7 C 19,7 C 4,8 km/h
13.06.2024 20:00 19,6 C 62 % 1016,0 hPa 0,0 l/m 1,6 km/h SO 135 5 min 151 W/m 12,1 C 19,6 C 4,8 km/h
13.06.2024 19:55 19,5 C 62 % 1016,0 hPa 0,0 l/m 1,6 km/h SO 135 5 min 151 W/m 12,0 C 19,5 C 6,4 km/h
13.06.2024 19:50 19,4 C 60 % 1015,9 hPa 0,0 l/m 3,2 km/h SO 135 5 min 160 W/m 11,4 C 19,4 C 6,4 km/h
13.06.2024 19:45 19,3 C 63 % 1015,9 hPa 0,0 l/m 3,2 km/h SO 135 5 min 162 W/m 12,1 C 19,3 C 6,4 km/h
13.06.2024 19:40 19,2 C 60 % 1015,9 hPa 0,0 l/m 3,2 km/h SO 135 5 min 167 W/m 11,2 C 19,2 C 6,4 km/h
13.06.2024 19:35 19,1 C 62 % 1015,9 hPa 0,0 l/m 3,2 km/h SO 135 5 min 171 W/m 11,6 C 19,1 C 6,4 km/h
13.06.2024 19:30 19,2 C 62 % 1015,8 hPa 0,0 l/m 3,2 km/h SO 135 5 min 174 W/m 11,7 C 19,2 C 4,8 km/h
13.06.2024 19:25 19,4 C 56 % 1015,8 hPa 0,0 l/m 1,6 km/h SO 135 0 min 81 W/m 10,4 C 19,4 C 4,8 km/h
13.06.2024 19:20 19,9 C 56 % 1015,7 hPa 0,0 l/m 1,6 km/h SO 135 0 min 77 W/m 10,9 C 19,9 C 4,8 km/h
13.06.2024 19:15 20,3 C 56 % 1015,7 hPa 0,0 l/m 3,2 km/h SO 135 0 min 120 W/m 11,2 C 20,3 C 4,8 km/h
13.06.2024 19:10 20,6 C 58 % 1015,7 hPa 0,0 l/m 3,2 km/h SO 135 5 min 241 W/m 12,0 C 20,6 C 4,8 km/h
13.06.2024 19:05 20,7 C 55 % 1015,6 hPa 0,0 l/m 3,2 km/h SO 135 0 min 183 W/m 11,3 C 20,7 C 6,4 km/h
13.06.2024 19:00 20,7 C 54 % 1015,6 hPa 0,0 l/m 3,2 km/h SO 135 5 min 246 W/m 11,1 C 20,7 C 6,4 km/h
13.06.2024 18:55 20,6 C 58 % 1015,6 hPa 0,0 l/m 3,2 km/h S-SO 157 5 min 295 W/m 12,0 C 20,6 C 8,0 km/h
13.06.2024 18:50 20,3 C 60 % 1015,6 hPa 0,0 l/m 3,2 km/h S-SO 157 5 min 316 W/m 12,3 C 20,3 C 8,0 km/h
13.06.2024 18:45 20,0 C 58 % 1015,6 hPa 0,0 l/m 3,2 km/h S-SO 157 5 min 323 W/m 11,5 C 20,0 C 8,0 km/h
13.06.2024 18:40 19,9 C 60 % 1015,7 hPa 0,0 l/m 3,2 km/h S-SW 202 5 min 315 W/m 11,9 C 19,9 C 8,0 km/h
13.06.2024 18:35 19,6 C 58 % 1015,6 hPa 0,0 l/m 4,8 km/h S-SW 202 5 min 336 W/m 11,1 C 19,6 C 8,0 km/h
13.06.2024 18:30 19,1 C 62 % 1015,7 hPa 0,0 l/m 1,6 km/h S-SO 157 5 min 388 W/m 11,6 C 19,1 C 8,0 km/h
13.06.2024 18:25 18,6 C 61 % 1015,8 hPa 0,0 l/m 3,2 km/h S-SO 157 5 min 420 W/m 10,9 C 18,6 C 8,0 km/h
13.06.2024 18:20 18,3 C 63 % 1015,8 hPa 0,0 l/m 3,2 km/h S 180 5 min 536 W/m 11,1 C 18,3 C 8,0 km/h
13.06.2024 18:15 18,2 C 62 % 1015,9 hPa 0,0 l/m 3,2 km/h S 180 5 min 566 W/m 10,8 C 18,2 C 6,4 km/h
13.06.2024 18:10 18,1 C 62 % 1015,8 hPa 0,0 l/m 3,2 km/h S 180 0 min 204 W/m 10,7 C 18,1 C 8,0 km/h
13.06.2024 18:05 18,2 C 62 % 1015,8 hPa 0,0 l/m 6,4 km/h S-SO 157 0 min 192 W/m 10,8 C 18,2 C 9,7 km/h
13.06.2024 18:00 18,4 C 60 % 1015,9 hPa 0,0 l/m 4,8 km/h S-SW 202 0 min 153 W/m 10,5 C 18,4 C 8,0 km/h
13.06.2024 17:55 18,6 C 59 % 1015,9 hPa 0,0 l/m 6,4 km/h S-SW 202 0 min 153 W/m 10,4 C 18,6 C 12,9 km/h
13.06.2024 17:50 18,8 C 60 % 1015,9 hPa 0,0 l/m 6,4 km/h S-SW 202 0 min 274 W/m 10,9 C 18,8 C 11,3 km/h
13.06.2024 17:45 18,9 C 60 % 1015,9 hPa 0,0 l/m 6,4 km/h SW 225 5 min 422 W/m 11,0 C 18,9 C 12,9 km/h
13.06.2024 17:40 19,1 C 58 % 1016,0 hPa 0,0 l/m 3,2 km/h W 270 0 min 251 W/m 10,6 C 19,1 C 6,4 km/h
13.06.2024 17:35 19,3 C 58 % 1016,0 hPa 0,0 l/m 1,6 km/h W-NW 292 0 min 148 W/m 10,8 C 19,3 C 6,4 km/h
13.06.2024 17:30 19,6 C 58 % 1015,9 hPa 0,0 l/m 1,6 km/h W-NW 292 0 min 137 W/m 11,1 C 19,6 C 3,2 km/h
13.06.2024 17:25 19,9 C 54 % 1015,9 hPa 0,0 l/m 3,2 km/h W-NW 292 0 min 160 W/m 10,3 C 19,9 C 6,4 km/h
13.06.2024 17:20 20,3 C 54 % 1015,9 hPa 0,0 l/m 1,6 km/h SW 225 0 min 149 W/m 10,7 C 20,3 C 6,4 km/h
13.06.2024 17:15 20,4 C 54 % 1015,8 hPa 0,0 l/m 3,2 km/h SW 225 0 min 121 W/m 10,8 C 20,4 C 6,4 km/h
13.06.2024 17:10 20,4 C 54 % 1015,8 hPa 0,0 l/m 1,6 km/h SW 225 0 min 315 W/m 10,8 C 20,4 C 4,8 km/h
13.06.2024 17:05 20,3 C 55 % 1015,7 hPa 0,0 l/m 1,6 km/h SW 225 5 min 735 W/m 11,0 C 20,3 C 4,8 km/h
13.06.2024 17:00 20,2 C 56 % 1015,8 hPa 0,0 l/m 4,8 km/h S-SW 202 5 min 529 W/m 11,1 C 20,2 C 11,3 km/h
13.06.2024 16:55 20,4 C 52 % 1015,9 hPa 0,0 l/m 3,2 km/h S 180 0 min 262 W/m 10,2 C 20,4 C 12,9 km/h
13.06.2024 16:50 20,7 C 52 % 1015,8 hPa 0,0 l/m 11,3 km/h S-SW 202 5 min 828 W/m 10,5 C 19,0 C 19,3 km/h
13.06.2024 16:45 20,6 C 53 % 1015,8 hPa 0,0 l/m 8,0 km/h S-SW 202 5 min 847 W/m 10,7 C 20,0 C 14,5 km/h
13.06.2024 16:40 20,3 C 53 % 1015,9 hPa 0,0 l/m 6,4 km/h S 180 5 min 788 W/m 10,4 C 20,3 C 12,9 km/h
13.06.2024 16:35 20,0 C 54 % 1016,1 hPa 0,0 l/m 3,2 km/h S-SW 202 5 min 803 W/m 10,4 C 20,0 C 8,0 km/h
13.06.2024 16:30 19,8 C 51 % 1015,9 hPa 0,0 l/m 6,4 km/h W 270 5 min 816 W/m 9,4 C 19,8 C 16,1 km/h
13.06.2024 16:25 19,6 C 56 % 1016,1 hPa 0,0 l/m 3,2 km/h S-SW 202 5 min 889 W/m 10,6 C 19,6 C 16,1 km/h
13.06.2024 16:20 18,9 C 59 % 1016,1 hPa 0,0 l/m 4,8 km/h W-SW 247 5 min 962 W/m 10,7 C 18,9 C 8,0 km/h
13.06.2024 16:15 18,5 C 58 % 1016,2 hPa 0,0 l/m 4,8 km/h W-NW 292 5 min 981 W/m 10,1 C 18,5 C 14,5 km/h
13.06.2024 16:10 18,5 C 58 % 1016,3 hPa 0,0 l/m 4,8 km/h W-SW 247 0 min 345 W/m 10,1 C 18,5 C 11,3 km/h
13.06.2024 16:05 18,4 C 57 % 1016,3 hPa 0,0 l/m 6,4 km/h W 270 0 min 380 W/m 9,7 C 18,4 C 14,5 km/h
13.06.2024 16:00 18,1 C 59 % 1016,3 hPa 0,0 l/m 3,2 km/h W-SW 247 5 min 949 W/m 10,0 C 18,1 C 8,0 km/h
13.06.2024 15:55 17,6 C 59 % 1016,3 hPa 0,0 l/m 4,8 km/h W 270 5 min 1016 W/m 9,5 C 17,6 C 11,3 km/h
13.06.2024 15:50 17,4 C 57 % 1016,3 hPa 0,0 l/m 6,4 km/h W-NW 292 0 min 410 W/m 8,8 C 17,4 C 11,3 km/h
13.06.2024 15:45 17,3 C 57 % 1016,4 hPa 0,0 l/m 4,8 km/h NW 315 0 min 276 W/m 8,7 C 17,3 C 11,3 km/h
13.06.2024 15:40 17,3 C 58 % 1016,4 hPa 0,0 l/m 4,8 km/h N-NO 22 0 min 287 W/m 9,0 C 17,3 C 12,9 km/h
13.06.2024 15:35 17,2 C 57 % 1016,3 hPa 0,0 l/m 6,4 km/h W-NW 292 5 min 633 W/m 8,6 C 17,2 C 16,1 km/h
13.06.2024 15:30 17,2 C 57 % 1016,3 hPa 0,0 l/m 8,0 km/h NW 315 0 min 290 W/m 8,6 C 16,4 C 19,3 km/h
13.06.2024 15:25 17,3 C 58 % 1016,3 hPa 0,0 l/m 11,3 km/h NW 315 0 min 244 W/m 9,0 C 15,2 C 20,9 km/h
13.06.2024 15:20 17,4 C 58 % 1016,4 hPa 0,0 l/m 11,3 km/h NW 315 5 min 990 W/m 9,1 C 15,3 C 22,5 km/h
13.06.2024 15:15 17,6 C 59 % 1016,4 hPa 0,0 l/m 12,9 km/h NW 315 5 min 949 W/m 9,5 C 15,0 C 27,4 km/h
13.06.2024 15:10 17,6 C 59 % 1016,4 hPa 0,0 l/m 12,9 km/h NW 315 5 min 990 W/m 9,5 C 15,0 C 25,7 km/h
13.06.2024 15:05 18,1 C 57 % 1016,4 hPa 0,0 l/m 16,1 km/h W-NW 292 5 min 818 W/m 9,4 C 14,7 C 29,0 km/h
13.06.2024 15:00 18,8 C 54 % 1016,5 hPa 0,0 l/m 14,5 km/h NW 315 0 min 376 W/m 9,3 C 15,9 C 25,7 km/h
13.06.2024 14:55 19,3 C 53 % 1016,4 hPa 0,0 l/m 11,3 km/h NW 315 5 min 1076 W/m 9,5 C 17,4 C 19,3 km/h
13.06.2024 14:50 19,1 C 56 % 1016,3 hPa 0,0 l/m 4,8 km/h W 270 5 min 1016 W/m 10,1 C 19,1 C 16,1 km/h
13.06.2024 14:45 18,8 C 54 % 1016,1 hPa 0,0 l/m 6,4 km/h SW 225 5 min 953 W/m 9,3 C 18,8 C 14,5 km/h
13.06.2024 14:40 18,5 C 57 % 1016,4 hPa 0,0 l/m 8,0 km/h W-SW 247 5 min 1063 W/m 9,8 C 17,8 C 14,5 km/h
13.06.2024 14:35 18,3 C 59 % 1016,4 hPa 0,0 l/m 6,4 km/h S-SW 202 5 min 1086 W/m 10,1 C 18,3 C 14,5 km/h
13.06.2024 14:30 18,3 C 61 % 1016,3 hPa 0,0 l/m 4,8 km/h SW 225 0 min 436 W/m 10,6 C 18,3 C 17,7 km/h
13.06.2024 14:25 18,4 C 58 % 1016,3 hPa 0,0 l/m 4,8 km/h W-NW 292 0 min 329 W/m 10,0 C 18,4 C 14,5 km/h
13.06.2024 14:20 18,6 C 58 % 1016,3 hPa 0,0 l/m 6,4 km/h W-SW 247 0 min 392 W/m 10,2 C 18,6 C 16,1 km/h
13.06.2024 14:15 18,8 C 59 % 1016,2 hPa 0,0 l/m 4,8 km/h W-NW 292 5 min 1137 W/m 10,6 C 18,8 C 14,5 km/h
13.06.2024 14:10 19,2 C 55 % 1016,3 hPa 0,0 l/m 8,0 km/h W-SW 247 0 min 394 W/m 9,9 C 18,5 C 16,1 km/h
13.06.2024 14:05 19,6 C 57 % 1016,2 hPa 0,0 l/m 8,0 km/h S 180 0 min 431 W/m 10,8 C 18,9 C 14,5 km/h
13.06.2024 14:00 19,5 C 61 % 1016,2 hPa 0,0 l/m 8,0 km/h S 180 5 min 1160 W/m 11,8 C 18,8 C 17,7 km/h
13.06.2024 13:55 19,2 C 59 % 1016,3 hPa 0,0 l/m 3,2 km/h O 90 5 min 1127 W/m 11,0 C 19,2 C 14,5 km/h
13.06.2024 13:50 18,9 C 60 % 1016,3 hPa 0,0 l/m 3,2 km/h W-NW 292 5 min 1039 W/m 11,0 C 18,9 C 8,0 km/h
13.06.2024 13:45 19,0 C 60 % 1016,4 hPa 0,0 l/m 6,4 km/h W-SW 247 5 min 1055 W/m 11,1 C 19,0 C 12,9 km/h
13.06.2024 13:40 19,1 C 58 % 1016,5 hPa 0,0 l/m 8,0 km/h S-SW 202 5 min 1171 W/m 10,6 C 18,4 C 16,1 km/h
13.06.2024 13:35 19,1 C 60 % 1016,5 hPa 0,0 l/m 4,8 km/h S-SW 202 5 min 1114 W/m 11,1 C 19,1 C 19,3 km/h
13.06.2024 13:30 19,1 C 59 % 1016,5 hPa 0,0 l/m 6,4 km/h S-SO 157 5 min 1042 W/m 10,9 C 19,1 C 12,9 km/h
13.06.2024 13:25 18,7 C 62 % 1016,6 hPa 0,0 l/m 1,6 km/h O-NO 67 5 min 1028 W/m 11,3 C 18,7 C 6,4 km/h
13.06.2024 13:20 18,4 C 64 % 1016,5 hPa 0,0 l/m 1,6 km/h O-NO 67 5 min 981 W/m 11,5 C 18,4 C 4,8 km/h
13.06.2024 13:15 18,1 C 64 % 1016,6 hPa 0,0 l/m 4,8 km/h O-NO 67 5 min 979 W/m 11,2 C 18,1 C 12,9 km/h
13.06.2024 13:10 17,8 C 66 % 1016,7 hPa 0,0 l/m 1,6 km/h N-NW 337 5 min 970 W/m 11,4 C 17,8 C 8,0 km/h
13.06.2024 13:05 17,6 C 64 % 1016,7 hPa 0,0 l/m 6,4 km/h W 270 5 min 967 W/m 10,7 C 17,6 C 12,9 km/h
13.06.2024 13:00 17,6 C 65 % 1016,8 hPa 0,0 l/m 6,4 km/h O-NO 67 5 min 979 W/m 10,9 C 17,6 C 12,9 km/h
13.06.2024 12:55 17,3 C 66 % 1016,8 hPa 0,0 l/m 6,4 km/h NO 45 5 min 984 W/m 10,9 C 17,3 C 12,9 km/h
13.06.2024 12:50 17,0 C 66 % 1016,8 hPa 0,0 l/m 4,8 km/h NW 315 5 min 990 W/m 10,6 C 17,0 C 12,9 km/h
13.06.2024 12:45 17,0 C 69 % 1016,9 hPa 0,0 l/m 9,7 km/h W 270 5 min 1051 W/m 11,3 C 15,4 C 16,1 km/h
13.06.2024 12:40 16,9 C 68 % 1016,9 hPa 0,0 l/m 3,2 km/h NW 315 5 min 988 W/m 11,0 C 16,9 C 11,3 km/h
13.06.2024 12:35 16,6 C 69 % 1016,9 hPa 0,0 l/m 4,8 km/h W-NW 292 5 min 986 W/m 10,9 C 16,6 C 11,3 km/h
13.06.2024 12:30 16,3 C 70 % 1017,1 hPa 0,0 l/m 3,2 km/h NW 315 5 min 1005 W/m 10,8 C 16,3 C 8,0 km/h
13.06.2024 12:25 15,9 C 73 % 1017,0 hPa 0,0 l/m 6,4 km/h SW 225 5 min 1014 W/m 11,1 C 15,9 C 16,1 km/h
13.06.2024 12:20 15,7 C 71 % 1017,1 hPa 0,0 l/m 4,8 km/h W 270 5 min 1016 W/m 10,5 C 15,7 C 12,9 km/h
13.06.2024 12:15 15,6 C 71 % 1017,1 hPa 0,0 l/m 6,4 km/h W-NW 292 5 min 993 W/m 10,4 C 15,6 C 14,5 km/h
13.06.2024 12:10 15,7 C 69 % 1017,2 hPa 0,0 l/m 6,4 km/h NW 315 0 min 276 W/m 10,0 C 15,7 C 14,5 km/h
13.06.2024 12:05 15,8 C 70 % 1017,2 hPa 0,0 l/m 4,8 km/h W 270 5 min 1016 W/m 10,3 C 15,8 C 11,3 km/h
13.06.2024 12:00 16,1 C 70 % 1017,2 hPa 0,0 l/m 6,4 km/h W-NW 292 0 min 148 W/m 10,6 C 16,1 C 12,9 km/h
13.06.2024 11:55 16,2 C 69 % 1017,2 hPa 0,0 l/m 4,8 km/h W-NW 292 5 min 1051 W/m 10,5 C 16,2 C 12,9 km/h
13.06.2024 11:50 16,0 C 71 % 1017,3 hPa 0,0 l/m 3,2 km/h W-NW 292 5 min 1049 W/m 10,7 C 16,0 C 8,0 km/h
13.06.2024 11:45 15,8 C 70 % 1017,3 hPa 0,0 l/m 6,4 km/h W-NW 292 5 min 958 W/m 10,3 C 15,8 C 12,9 km/h
13.06.2024 11:40 15,7 C 69 % 1017,2 hPa 0,0 l/m 9,7 km/h W 270 5 min 967 W/m 10,0 C 14,0 C 12,9 km/h
13.06.2024 11:35 15,6 C 69 % 1017,2 hPa 0,0 l/m 4,8 km/h W-NW 292 5 min 986 W/m 9,9 C 15,6 C 11,3 km/h
13.06.2024 11:30 15,4 C 73 % 1017,2 hPa 0,0 l/m 3,2 km/h O-NO 67 0 min 401 W/m 10,6 C 15,4 C 8,0 km/h
13.06.2024 11:25 15,3 C 79 % 1017,2 hPa 0,0 l/m 3,2 km/h O-NO 67 0 min 538 W/m 11,7 C 15,3 C 8,0 km/h
13.06.2024 11:20 14,9 C 81 % 1017,2 hPa 0,0 l/m 3,2 km/h NO 45 5 min 1134 W/m 11,7 C 14,9 C 8,0 km/h
13.06.2024 11:15 14,3 C 83 % 1017,3 hPa 0,0 l/m 3,2 km/h O-NO 67 5 min 820 W/m 11,5 C 14,3 C 8,0 km/h
13.06.2024 11:10 14,0 C 86 % 1017,3 hPa 0,0 l/m 4,8 km/h NO 45 5 min 1023 W/m 11,7 C 14,0 C 8,0 km/h
13.06.2024 11:05 13,6 C 87 % 1017,3 hPa 0,0 l/m 3,2 km/h NO 45 5 min 1106 W/m 11,5 C 13,6 C 8,0 km/h
13.06.2024 11:00 13,3 C 89 % 1017,3 hPa 0,0 l/m 1,6 km/h NO 45 5 min 657 W/m 11,5 C 13,3 C 6,4 km/h
13.06.2024 10:55 13,0 C 90 % 1017,4 hPa 0,0 l/m 3,2 km/h NO 45 0 min 359 W/m 11,4 C 13,0 C 11,3 km/h
13.06.2024 10:50 12,7 C 91 % 1017,4 hPa 0,0 l/m 3,2 km/h NO 45 0 min 510 W/m 11,3 C 12,7 C 8,0 km/h
13.06.2024 10:45 12,4 C 93 % 1017,5 hPa 0,0 l/m 3,2 km/h NO 45 5 min 1076 W/m 11,3 C 12,4 C 9,7 km/h
13.06.2024 10:40 11,9 C 92 % 1017,4 hPa 0,0 l/m 3,2 km/h NO 45 5 min 536 W/m 10,6 C 11,9 C 8,0 km/h
13.06.2024 10:35 11,5 C 92 % 1017,5 hPa 0,0 l/m 4,8 km/h O-NO 67 5 min 689 W/m 10,2 C 11,5 C 11,3 km/h
13.06.2024 10:30 11,2 C 91 % 1017,5 hPa 0,0 l/m 4,8 km/h NO 45 0 min 418 W/m 9,8 C 11,2 C 11,3 km/h
13.06.2024 10:25 11,1 C 91 % 1017,5 hPa 0,0 l/m 6,4 km/h NO 45 0 min 343 W/m 9,7 C 11,1 C 12,9 km/h
13.06.2024 10:20 11,0 C 92 % 1017,6 hPa 0,0 l/m 6,4 km/h NO 45 0 min 265 W/m 9,8 C 11,0 C 12,9 km/h
13.06.2024 10:15 10,9 C 91 % 1017,6 hPa 0,0 l/m 8,0 km/h NO 45 0 min 213 W/m 9,5 C 9,8 C 16,1 km/h
13.06.2024 10:10 10,9 C 91 % 1017,6 hPa 0,0 l/m 8,0 km/h NO 45 0 min 192 W/m 9,5 C 9,8 C 14,5 km/h
13.06.2024 10:05 10,8 C 91 % 1017,7 hPa 0,0 l/m 4,8 km/h NO 45 0 min 174 W/m 9,4 C 10,8 C 14,5 km/h
13.06.2024 10:00 10,7 C 90 % 1017,7 hPa 0,0 l/m 4,8 km/h NO 45 0 min 158 W/m 9,1 C 10,7 C 11,3 km/h
13.06.2024 09:55 10,7 C 90 % 1017,7 hPa 0,2 l/m 4,8 km/h N-NO 22 0 min 125 W/m 9,1 C 10,7 C 11,3 km/h
13.06.2024 09:50 10,9 C 90 % 1017,6 hPa 0,0 l/m 8,0 km/h N-NO 22 0 min 90 W/m 9,3 C 9,8 C 19,3 km/h
13.06.2024 09:45 11,1 C 90 % 1017,7 hPa 0,2 l/m 11,3 km/h N-NO 22 0 min 74 W/m 9,5 C 8,1 C 20,9 km/h
13.06.2024 09:40 11,3 C 89 % 1017,8 hPa 0,0 l/m 8,0 km/h N-NO 22 0 min 79 W/m 9,6 C 10,2 C 17,7 km/h
13.06.2024 09:35 11,6 C 89 % 1018,0 hPa 0,2 l/m 6,4 km/h NW 315 0 min 74 W/m 9,8 C 11,6 C 12,9 km/h
13.06.2024 09:30 11,8 C 88 % 1018,1 hPa 0,2 l/m 4,8 km/h W-NW 292 0 min 49 W/m 9,9 C 11,8 C 12,9 km/h
13.06.2024 09:25 12,0 C 87 % 1018,1 hPa 0,2 l/m 4,8 km/h W-NW 292 0 min 33 W/m 9,9 C 12,0 C 12,9 km/h
13.06.2024 09:20 12,2 C 85 % 1018,2 hPa 0,2 l/m 4,8 km/h W 270 0 min 30 W/m 9,8 C 12,2 C 12,9 km/h
13.06.2024 09:15 12,5 C 84 % 1018,0 hPa 0,2 l/m 6,4 km/h W 270 0 min 30 W/m 9,9 C 12,5 C 14,5 km/h
13.06.2024 09:10 12,8 C 81 % 1018,0 hPa 0,0 l/m 11,3 km/h W-SW 247 0 min 33 W/m 9,6 C 10,1 C 20,9 km/h
13.06.2024 09:05 13,3 C 78 % 1017,7 hPa 0,0 l/m 14,5 km/h W 270 0 min 32 W/m 9,5 C 9,3 C 29,0 km/h
13.06.2024 09:00 13,7 C 75 % 1017,5 hPa 0,0 l/m 12,9 km/h NW 315 0 min 39 W/m 9,3 C 10,4 C 29,0 km/h
13.06.2024 08:55 14,0 C 73 % 1017,5 hPa 0,0 l/m 9,7 km/h W 270 0 min 98 W/m 9,2 C 12,2 C 19,3 km/h
13.06.2024 08:50 14,3 C 72 % 1017,3 hPa 0,0 l/m 9,7 km/h NW 315 0 min 214 W/m 9,3 C 12,5 C 22,5 km/h
13.06.2024 08:45 14,3 C 70 % 1017,3 hPa 0,0 l/m 12,9 km/h NW 315 5 min 378 W/m 8,9 C 11,1 C 20,9 km/h
13.06.2024 08:40 14,3 C 72 % 1017,0 hPa 0,0 l/m 12,9 km/h NW 315 5 min 378 W/m 9,3 C 11,1 C 24,1 km/h
13.06.2024 08:35 14,3 C 73 % 1017,0 hPa 0,0 l/m 8,0 km/h N-NO 22 5 min 461 W/m 9,5 C 13,4 C 19,3 km/h
13.06.2024 08:30 14,2 C 71 % 1017,1 hPa 0,0 l/m 12,9 km/h NW 315 5 min 367 W/m 9,0 C 11,0 C 22,5 km/h
13.06.2024 08:25 14,2 C 72 % 1016,9 hPa 0,0 l/m 9,7 km/h NW 315 0 min 204 W/m 9,2 C 12,4 C 20,9 km/h
13.06.2024 08:20 14,2 C 73 % 1016,9 hPa 0,0 l/m 6,4 km/h N 360 5 min 387 W/m 9,4 C 14,2 C 16,1 km/h
13.06.2024 08:15 14,1 C 74 % 1016,8 hPa 0,0 l/m 3,2 km/h N-NO 22 0 min 301 W/m 9,5 C 14,1 C 8,0 km/h
13.06.2024 08:10 13,9 C 74 % 1016,7 hPa 0,0 l/m 6,4 km/h O-NO 67 0 min 227 W/m 9,3 C 13,9 C 12,9 km/h
13.06.2024 08:05 13,8 C 76 % 1016,7 hPa 0,0 l/m 6,4 km/h N-NO 22 0 min 221 W/m 9,6 C 13,8 C 14,5 km/h
13.06.2024 08:00 13,6 C 77 % 1016,9 hPa 0,0 l/m 8,0 km/h NO 45 5 min 459 W/m 9,6 C 12,6 C 17,7 km/h
13.06.2024 07:55 13,3 C 80 % 1016,8 hPa 0,0 l/m 8,0 km/h N-NO 22 5 min 417 W/m 9,9 C 12,3 C 14,5 km/h
13.06.2024 07:50 13,0 C 81 % 1016,7 hPa 0,0 l/m 8,0 km/h NO 45 5 min 392 W/m 9,8 C 12,0 C 20,9 km/h
13.06.2024 07:45 12,7 C 85 % 1016,7 hPa 0,0 l/m 8,0 km/h NO 45 5 min 387 W/m 10,2 C 11,7 C 20,9 km/h
13.06.2024 07:40 12,4 C 87 % 1016,7 hPa 0,0 l/m 6,4 km/h N-NO 22 5 min 378 W/m 10,3 C 12,4 C 16,1 km/h
13.06.2024 07:35 12,1 C 91 % 1016,6 hPa 0,0 l/m 4,8 km/h NO 45 5 min 353 W/m 10,7 C 12,1 C 14,5 km/h
13.06.2024 07:30 11,8 C 92 % 1016,6 hPa 0,0 l/m 4,8 km/h NO 45 5 min 336 W/m 10,5 C 11,8 C 12,9 km/h
13.06.2024 07:25 11,6 C 93 % 1016,7 hPa 0,0 l/m 4,8 km/h NO 45 5 min 325 W/m 10,5 C 11,6 C 9,7 km/h
13.06.2024 07:20 11,3 C 93 % 1016,7 hPa 0,0 l/m 3,2 km/h NO 45 5 min 302 W/m 10,2 C 11,3 C 9,7 km/h
13.06.2024 07:15 11,1 C 93 % 1016,7 hPa 0,0 l/m 3,2 km/h NO 45 5 min 285 W/m 10,0 C 11,1 C 9,7 km/h
13.06.2024 07:10 10,9 C 93 % 1016,6 hPa 0,0 l/m 3,2 km/h O-NO 67 0 min 169 W/m 9,8 C 10,9 C 8,0 km/h
13.06.2024 07:05 10,8 C 93 % 1016,7 hPa 0,0 l/m 1,6 km/h N-NO 22 0 min 162 W/m 9,7 C 10,8 C 4,8 km/h
13.06.2024 07:00 10,7 C 93 % 1016,7 hPa 0,0 l/m 1,6 km/h N-NO 22 0 min 93 W/m 9,6 C 10,7 C 3,2 km/h
13.06.2024 06:55 10,6 C 93 % 1016,7 hPa 0,0 l/m 0,0 km/h N-NO 22 0 min 65 W/m 9,5 C 10,6 C 1,6 km/h
13.06.2024 06:50 10,6 C 93 % 1016,8 hPa 0,0 l/m 1,6 km/h N-NO 22 0 min 60 W/m 9,5 C 10,6 C 3,2 km/h
13.06.2024 06:45 10,5 C 92 % 1016,7 hPa 0,0 l/m 0,0 km/h N-NO 22 0 min 63 W/m 9,3 C 10,5 C 1,6 km/h
13.06.2024 06:40 10,4 C 92 % 1016,7 hPa 0,0 l/m 0,0 km/h N-NO 22 0 min 62 W/m 9,2 C 10,4 C 1,6 km/h
13.06.2024 06:35 10,3 C 92 % 1016,6 hPa 0,0 l/m 0,0 km/h N-NO 22 0 min 56 W/m 9,1 C 10,3 C 1,6 km/h
13.06.2024 06:30 10,3 C 92 % 1016,5 hPa 0,0 l/m 0,0 km/h N-NO 22 0 min 51 W/m 9,1 C 10,3 C 1,6 km/h
13.06.2024 06:25 10,3 C 92 % 1016,4 hPa 0,0 l/m 1,6 km/h N-NO 22 0 min 51 W/m 9,1 C 10,3 C 3,2 km/h
13.06.2024 06:20 10,2 C 93 % 1016,4 hPa 0,0 l/m 3,2 km/h N-NO 22 0 min 51 W/m 9,1 C 10,2 C 4,8 km/h
13.06.2024 06:15 10,1 C 93 % 1016,3 hPa 0,0 l/m 1,6 km/h N-NO 22 0 min 49 W/m 9,0 C 10,1 C 4,8 km/h
13.06.2024 06:10 10,0 C 92 % 1016,4 hPa 0,0 l/m 1,6 km/h NO 45 0 min 49 W/m 8,8 C 10,0 C 3,2 km/h
13.06.2024 06:05 9,9 C 92 % 1016,4 hPa 0,0 l/m 1,6 km/h NO 45 0 min 46 W/m 8,7 C 9,9 C 3,2 km/h
13.06.2024 06:00 9,9 C 92 % 1016,5 hPa 0,0 l/m 0,0 km/h NO 45 0 min 37 W/m 8,7 C 9,9 C 1,6 km/h
_ Min-Zeit 06:05 16:30 04:20 - 06:00 - - - - 01:30 09:45 00:50
Minimum _ 9,8 C 51 % 1014,1 hPa - 0,0 km/h - - - - 7,7 C 8,1 C 0,0 km/h
_ Max-Zeit 19:05 06:15 09:20 09:15 15:05 - - 07:15 13:40 18:50 19:00 09:00
Maximum _ 20,8 C 93 % 1018,2 hPa 0,2 l/m 16,1 km/h
W-NW
- - 5 min 1171 W/m 12,3 C 20,7 C 29,0 km/h
NW
Durchschnitt _ 14,2 C 76 % 1016,2 hPa #1,4 l/m 3,9 km/h SO - #0 min. 7 W/m 9,7 C 13,9 C 9,2 km/h